Australian Towns and Cities METAR Reports

YMHB - Hobart/Tasmania, Australia
Distance from station: NE 55km
Updated: 23/10/2020 08:00
Mostly cloudy
Mostly cloudy
 Wind from NW
Wind: NW 11 km/h
Temperature: 12°C
Dew Point: 8°C
Humidity: 77%
Barometer: 1010 hPa
Clouds: Mostly cloudy
Visibility: 10 km
Cloud details: Few Clouds 1067 m
Mostly cloudy 8230 m
2020/10/22 21:00 YMHB 222100Z 31006KT 9999 FEW035 BKN270 12/08 Q1010
YMLT - Launceston Airpo, Australia
Distance from station: N 179km
Updated: 23/10/2020 08:00
Partly cloudy
Partly cloudy
 Wind from N
Wind: N 6 km/h
Temperature: 10°C
Dew Point: 9°C
Humidity: 94%
Barometer: 1011 hPa
Clouds: Partly cloudy
Visibility: 10 km
Cloud details: Partly cloudy 975 m
2020/10/22 21:00 YMLT 222100Z AUTO 01003KT 9999 // SCT032 10/09 Q1011
 
YMML - Melbourne Intl A, Australia
Distance from station: NNW 631km
Updated: 23/10/2020 08:00
Light rain, Showers, Partly cloudy
Light rain, Showers, Partly cloudy
 Wind from SSE
Wind: SSE 9 km/h
Temperature: 13°C
Dew Point: 11°C
Humidity: 88%
Barometer: 1009 hPa
Summary: Light rain, Showers
Clouds: Partly cloudy
Visibility: 10 km
2020/10/22 21:00 YMML 222100Z 15005KT 110V170 9999 -SHRA NSC 13/11 Q1009
YSCB - Canberra (civ/Mi, Australia
Distance from station: NNE 888km
Updated: 23/10/2020 08:00
Partly cloudy
Partly cloudy
 Wind from ESE
Wind: ESE 6 km/h
Temperature: 15°C
Dew Point: 14°C
Humidity: 94%
Barometer: 1014 hPa
Clouds: Partly cloudy
Visibility: 10 km
Cloud details: Partly cloudy 2042 m
Partly cloudy 2469 m
2020/10/22 21:00 YSCB 222100Z AUTO 12003KT 9999 // SCT067 SCT081 15/14 Q1014
 
YSSY - Sydney Intl Airp, Australia
Distance from station: NNE 1083km
Updated: 23/10/2020 08:00
Partly cloudy
Partly cloudy
 Wind from N
Wind: N 9 km/h
Temperature: 22°C
Dew Point: 17°C
Humidity: 73%
Barometer: 1014 hPa
Clouds: Partly cloudy
Visibility: 10 km
Cloud details: Partly cloudy 366 m
Partly cloudy 8534 m
2020/10/22 21:00 YSSY 222100Z 01005KT 9999 SCT012 SCT280 22/17 Q1014 NOSIG
YPAD - Adelaide Intl Ar, Australia
Distance from station: NW 1166km
Updated: 23/10/2020 08:00
Clear
Clear
 Wind from N
Wind: N 7 km/h
Temperature: 18°C
Dew Point: 13°C
Humidity: 73%
Barometer: 1005 hPa
Summary: Clear
Visibility: greater than 10 km
2020/10/22 21:00 YPAD 222100Z 35004KT CAVOK 18/13 Q1005 NOSIG
 
YBBN - Brisbane Intl Ar, Australia
Distance from station: NNE 1836km
Updated: 23/10/2020 08:00
Mostly cloudy
Mostly cloudy
 Wind from NE
Wind: NE 9 km/h
Temperature: 22°C
Dew Point: 19°C
Humidity: 83%
Barometer: 1015 hPa
Clouds: Mostly cloudy
Visibility: 10 km
Cloud details: Few Clouds 914 m
Mostly cloudy 1524 m
2020/10/22 21:00 YBBN 222100Z 04005KT 9999 FEW030 BKN050 22/19 Q1015
YBMK - Mackay, Australia
Distance from station: N 2456km
Updated: 23/10/2020 08:00
Partly cloudy
Partly cloudy
 Wind from N
Wind: N 15 km/h
Temperature: 25°C
Dew Point: 19°C
Humidity: 69%
Barometer: 1014 hPa
Clouds: Partly cloudy
Visibility: 10 km
Cloud details: Partly cloudy 701 m
2020/10/22 21:00 YBMK 222100Z AUTO 01008KT 9999 // SCT023 25/19 Q1014
 
YBAS - Alice Springs Ar, Australia
Distance from station: NNW 2462km
Updated: 23/10/2020 08:00
Clear
Clear
 Wind from WSW
Wind: WSW 9 km/h
Temperature: 23°C
Dew Point: 12°C
Humidity: 50%
Barometer: 1009 hPa
Clouds: Clear
Visibility: 10 km
2020/10/22 21:00 YBAS 222100Z AUTO 24005KT 9999 // NCD 23/12 Q1009
YBTL - Townsville(Civ/M, Australia
Distance from station: N 2655km
Updated: 23/10/2020 08:00
Partly cloudy
Partly cloudy
 Wind from N
Wind: N 15 km/h
Temperature: 26°C
Dew Point: 21°C
Humidity: 74%
Barometer: 1013 hPa
Clouds: Partly cloudy
Visibility: 10 km
Cloud details: Few Clouds 610 m
Partly cloudy 9144 m
2020/10/22 21:00 YBTL 222100Z 01008KT 9999 FEW020 SCT300 26/21 Q1013
 
YBCS - Cairns Airport, Australia
Distance from station: N 2923km
Updated: 23/10/2020 08:00
Mostly cloudy
Mostly cloudy
 Wind from S
Wind: S 6 km/h
Temperature: 24°C
Dew Point: 20°C
Humidity: 78%
Barometer: 1013 hPa
Clouds: Mostly cloudy
Visibility: 10 km
Cloud details: Mostly cloudy 1158 m
2020/10/22 21:00 YBCS 222100Z AUTO 19003KT 9999 // BKN038 24/20 Q1013
YPPH - Perth Intl/Belmo, Australia
Distance from station: WNW 2982km
Updated: 23/10/2020 08:04
Clear
Clear
 Wind from E
Wind: E 39 km/h, Gust: 57 km/h
Temperature: 13°C
Dew Point: 9°C
Humidity: 77%
Barometer: 1016 hPa
Summary: Clear
Visibility: greater than 10 km
2020/10/22 21:04 YPPH 222104Z 09021G31KT CAVOK 13/09 Q1016
 
YPDN - Darwin (civ/Mil), Australia
Distance from station: NNW 3749km
Updated: 23/10/2020 08:00
Few Clouds
Few Clouds
 Wind from N
Wind: N 6 km/h
Temperature: 25°C
Dew Point: 24°C
Humidity: 94%
Barometer: 1009 hPa
Clouds: Few Clouds
Visibility: 10 km
Cloud details: Few Clouds 274 m
2020/10/22 21:00 YPDN 222100Z 01003KT 9999 FEW009 25/24 Q1009 NOSIG
YBWX - Barrow Island, Australia
Distance from station: NW 3832km
Updated: 23/10/2020 08:00

 Wind from SSW
Wind: SSW 35 km/h
Temperature: 22°C
Dew Point: 18°C
Humidity: 78%
Barometer: 1008 hPa
2020/10/22 21:00 YBWX 222100Z AUTO 21019KT //// // ////// 22/18 Q1008